createdAt,value
2022-08-05T00:06:03.119Z,15.63
2022-08-05T00:11:30.172Z,17.13
2022-08-05T00:17:01.986Z,19.43
2022-08-05T00:22:32.010Z,17.73
2022-08-05T00:28:02.484Z,18.55
2022-08-05T00:34:55.196Z,15.23
2022-08-05T00:39:19.772Z,17.47
2022-08-05T00:44:50.397Z,19.85
2022-08-05T00:50:20.866Z,16.05
2022-08-05T00:55:50.814Z,14.75
2022-08-05T01:01:24.683Z,18.08
2022-08-05T01:07:13.616Z,17.75
2022-08-05T01:13:05.018Z,16.10
2022-08-05T01:18:47.965Z,18.25
2022-08-05T01:24:42.864Z,17.70
2022-08-05T01:30:19.141Z,29.33
2022-08-05T01:36:13.099Z,20.53
2022-08-05T01:41:47.645Z,24.38
2022-08-05T01:47:21.180Z,21.77
2022-08-05T01:52:54.115Z,17.27
2022-08-05T01:58:30.046Z,18.67
2022-08-05T02:04:13.036Z,13.55
2022-08-05T02:09:42.250Z,16.48
2022-08-05T02:15:23.374Z,16.00
2022-08-05T02:20:58.775Z,18.55
2022-08-05T02:26:36.571Z,19.05
2022-08-05T02:32:10.720Z,22.70
2022-08-05T02:37:46.553Z,19.55
2022-08-05T02:43:24.109Z,20.10
2022-08-05T02:48:54.615Z,22.10
2022-08-05T02:54:35.828Z,22.90
2022-08-05T03:00:07.640Z,24.13
2022-08-05T03:06:55.041Z,23.73
2022-08-05T03:11:54.565Z,20.95
2022-08-05T03:17:20.363Z,18.52
2022-08-05T03:22:51.005Z,19.90
2022-08-05T03:28:21.814Z,17.33
2022-08-05T03:33:53.151Z,18.80
2022-08-05T03:39:27.092Z,18.35
2022-08-05T03:44:58.295Z,16.67
2022-08-05T03:50:30.326Z,13.57
2022-08-05T03:56:12.127Z,13.70
2022-08-05T04:01:49.200Z,12.07
2022-08-05T04:07:19.296Z,13.68
2022-08-05T04:12:53.805Z,20.33
2022-08-05T04:18:25.963Z,14.68
2022-08-05T04:24:05.783Z,14.90
2022-08-05T04:29:35.851Z,14.52
2022-08-05T04:35:17.342Z,17.23
2022-08-05T04:40:50.860Z,16.20
2022-08-05T04:46:27.763Z,17.92
2022-08-05T04:52:00.505Z,18.00
2022-08-05T04:57:29.865Z,18.30
2022-08-05T05:03:08.991Z,29.38
2022-08-05T05:08:42.800Z,25.83
2022-08-05T05:14:16.149Z,27.70
2022-08-05T05:19:47.587Z,26.48
2022-08-05T05:25:18.123Z,36.80
2022-08-05T05:30:49.734Z,37.22
2022-08-05T05:36:18.671Z,69.00
2022-08-05T05:41:54.251Z,73.65
2022-08-05T05:47:23.604Z,76.10
2022-08-05T05:52:59.869Z,64.00
2022-08-05T05:58:32.226Z,63.30
2022-08-05T06:04:03.835Z,45.40
2022-08-05T06:10:01.599Z,30.50
2022-08-05T06:15:24.094Z,20.63
2022-08-05T06:20:54.273Z,20.42
2022-08-05T06:26:23.935Z,17.00
2022-08-05T06:31:55.113Z,17.38
2022-08-05T06:37:39.462Z,18.63
2022-08-05T06:43:51.710Z,19.90
2022-08-05T06:49:08.455Z,13.05
2022-08-05T06:54:38.402Z,23.83
2022-08-05T07:00:09.873Z,21.60
2022-08-05T07:05:41.122Z,18.00
2022-08-05T07:11:15.490Z,12.73
2022-08-05T07:17:59.112Z,13.77
2022-08-05T07:22:41.988Z,9.25
2022-08-05T07:28:17.384Z,9.25
2022-08-05T07:33:46.996Z,10.63
2022-08-05T07:39:24.888Z,9.52
2022-08-05T07:45:09.294Z,10.40
2022-08-05T07:50:39.590Z,8.85
2022-08-05T07:57:00.516Z,15.95
2022-08-05T08:02:03.053Z,16.65
2022-08-05T08:07:39.786Z,10.38
2022-08-05T08:13:29.304Z,12.32
2022-08-05T08:18:58.545Z,11.85
2022-08-05T08:24:51.034Z,12.15
2022-08-05T08:30:32.560Z,11.35
2022-08-05T08:36:39.009Z,11.30
2022-08-05T08:42:00.192Z,8.45
2022-08-05T08:48:05.437Z,11.45
2022-08-05T08:53:24.254Z,7.25
2022-08-05T08:58:54.290Z,16.45
2022-08-05T09:04:30.281Z,7.53
2022-08-05T09:09:59.683Z,10.43
2022-08-05T09:15:28.682Z,6.65
2022-08-05T09:21:01.090Z,9.60
2022-08-05T09:26:30.107Z,6.47
2022-08-05T09:32:51.325Z,6.93
2022-08-05T09:38:12.808Z,15.77
2022-08-05T09:43:46.580Z,7.80
2022-08-05T09:49:40.327Z,7.10
2022-08-05T09:55:57.087Z,14.48
2022-08-05T10:01:13.276Z,9.75
2022-08-05T10:06:55.115Z,12.63
2022-08-05T10:12:33.857Z,6.82
2022-08-05T10:18:11.947Z,12.52
2022-08-05T10:23:55.621Z,7.05
2022-08-05T10:30:06.693Z,6.07
2022-08-05T10:35:22.620Z,4.75
2022-08-05T10:41:09.911Z,9.27
2022-08-05T10:52:39.359Z,3.65
2022-08-05T10:58:20.626Z,9.83
2022-08-05T11:04:08.576Z,7.03
2022-08-05T11:09:46.086Z,8.70
2022-08-05T11:15:21.914Z,5.43
2022-08-05T11:20:54.078Z,4.50
2022-08-05T11:26:28.361Z,6.93
2022-08-05T11:32:25.884Z,5.95
2022-08-05T11:38:36.776Z,5.10
2022-08-05T11:44:05.846Z,6.22
2022-08-05T11:49:35.810Z,6.40
2022-08-05T11:55:10.708Z,7.68
2022-08-05T12:00:44.225Z,5.47
2022-08-05T12:06:17.446Z,7.05
2022-08-05T12:11:51.113Z,8.02
2022-08-05T12:18:04.242Z,11.70
2022-08-05T12:23:11.426Z,8.25
2022-08-05T12:28:42.420Z,11.60
2022-08-05T12:34:21.541Z,7.97
2022-08-05T12:39:54.006Z,9.55
2022-08-05T12:45:42.456Z,15.73
2022-08-05T12:52:10.378Z,9.98
2022-08-05T12:57:09.477Z,11.65
2022-08-05T13:02:40.838Z,11.30
2022-08-05T13:08:10.167Z,8.88
2022-08-05T13:14:05.434Z,9.80
2022-08-05T13:19:51.857Z,13.75
2022-08-05T13:25:22.143Z,10.93
2022-08-05T13:31:14.007Z,15.05
2022-08-05T13:36:45.303Z,12.85
2022-08-05T13:42:15.357Z,16.33
2022-08-05T13:48:09.954Z,15.60
2022-08-05T13:53:48.035Z,16.95
2022-08-05T13:59:20.289Z,24.73
2022-08-05T14:05:11.757Z,26.05
2022-08-05T14:10:44.831Z,26.50
2022-08-05T14:16:17.045Z,26.30
2022-08-05T14:22:08.878Z,11.57
2022-08-05T14:27:47.366Z,7.13
2022-08-05T14:33:22.655Z,6.63
2022-08-05T14:38:54.195Z,10.15
2022-08-05T14:44:25.256Z,5.53
2022-08-05T14:50:06.679Z,4.35
2022-08-05T14:55:43.706Z,6.75
2022-08-05T15:01:47.614Z,7.40
2022-08-05T15:08:05.528Z,6.57
2022-08-05T15:13:05.561Z,5.70
2022-08-05T15:18:47.093Z,5.43
2022-08-05T15:24:17.514Z,7.30
2022-08-05T15:29:49.027Z,5.30
2022-08-05T15:35:19.295Z,4.70
2022-08-05T15:41:20.986Z,6.57
2022-08-05T15:52:16.437Z,5.57
2022-08-05T15:57:49.061Z,7.50
2022-08-05T16:03:18.996Z,5.53
2022-08-05T16:08:55.214Z,5.40
2022-08-05T16:14:25.096Z,5.32
2022-08-05T16:20:05.500Z,11.93
2022-08-05T16:25:42.723Z,6.70
2022-08-05T16:31:14.267Z,5.47
2022-08-05T16:36:43.763Z,8.27
2022-08-05T16:42:18.498Z,6.18
2022-08-05T16:47:54.213Z,5.93
2022-08-05T16:54:02.082Z,5.67
2022-08-05T16:59:16.847Z,5.63
2022-08-05T17:04:45.483Z,4.32
2022-08-05T17:10:15.836Z,5.75
2022-08-05T17:15:47.956Z,8.20
2022-08-05T17:21:23.495Z,10.25
2022-08-05T17:26:52.863Z,9.70
2022-08-05T17:32:22.959Z,10.00
2022-08-05T17:38:00.666Z,11.70
2022-08-05T17:43:50.487Z,12.85
2022-08-05T17:49:23.885Z,13.13
2022-08-05T17:54:55.489Z,13.68
2022-08-05T18:00:28.652Z,11.18
2022-08-05T18:06:04.005Z,11.13
2022-08-05T18:11:33.995Z,12.80
2022-08-05T18:17:05.812Z,12.10
2022-08-05T18:22:57.237Z,13.80
2022-08-05T18:28:28.368Z,19.80
2022-08-05T18:33:57.577Z,20.05
2022-08-05T18:40:29.629Z,17.23
2022-08-05T18:45:17.552Z,20.45
2022-08-05T18:52:04.500Z,14.80
2022-08-05T18:56:54.808Z,17.33
2022-08-05T19:02:27.877Z,15.35
2022-08-05T19:08:00.254Z,15.95
2022-08-05T19:13:35.517Z,20.70
2022-08-05T19:19:05.813Z,17.33
2022-08-05T19:24:38.641Z,20.48
2022-08-05T19:30:24.965Z,23.02
2022-08-05T19:35:56.548Z,27.50
2022-08-05T19:42:03.360Z,27.33
2022-08-05T19:47:17.150Z,24.42
2022-08-05T19:52:47.805Z,27.30
2022-08-05T19:58:28.374Z,32.35
2022-08-05T20:04:00.455Z,24.30
2022-08-05T20:09:53.741Z,15.98
2022-08-05T20:15:51.647Z,14.32
2022-08-05T20:26:43.147Z,14.77
2022-08-05T20:32:12.381Z,19.15
2022-08-05T20:38:05.985Z,17.08
2022-08-05T20:43:57.707Z,14.55
2022-08-05T20:49:24.529Z,15.50
2022-08-05T20:54:59.832Z,11.63
2022-08-05T21:00:54.511Z,12.93
2022-08-05T21:06:28.535Z,13.43
2022-08-05T21:12:10.242Z,12.55
2022-08-05T21:17:40.914Z,15.18
2022-08-05T21:23:12.815Z,11.43
2022-08-05T21:28:47.623Z,12.05
2022-08-05T21:34:20.469Z,12.50
2022-08-05T21:39:51.491Z,14.20
2022-08-05T21:45:24.482Z,18.83
2022-08-05T21:50:55.651Z,13.38
2022-08-05T21:56:26.902Z,16.42
2022-08-05T22:01:56.892Z,16.60
2022-08-05T22:07:54.461Z,16.77
2022-08-05T22:14:32.955Z,20.77
2022-08-05T22:19:15.065Z,26.83
2022-08-05T22:25:20.897Z,17.02
2022-08-05T22:30:57.906Z,17.58
2022-08-05T22:36:31.046Z,15.05
2022-08-05T22:42:11.313Z,19.80
2022-08-05T22:47:49.855Z,17.40
2022-08-05T22:53:25.617Z,15.80
2022-08-05T22:59:43.622Z,18.38
2022-08-05T23:04:53.602Z,15.48
2022-08-05T23:10:25.673Z,19.58
2022-08-05T23:15:54.315Z,16.27
2022-08-05T23:21:24.128Z,13.45
2022-08-05T23:27:12.585Z,18.23
2022-08-05T23:32:45.238Z,24.95
2022-08-05T23:38:14.774Z,25.88
2022-08-05T23:44:06.347Z,23.35
2022-08-05T23:49:37.253Z,31.23
2022-08-05T23:55:10.048Z,29.00
